Time;durP1;ratioP1;P1;durP2;ratioP2;P2;SDS_P1;SDS_P2;PMS_P1;PMS_P2;Temp;Humidity;BMP_temperature;BMP_pressure;BME280_temperature;BME280_humidity;BME280_pressure;Samples;Min_cycle;Max_cycle;Signal;HPM_P1;HPM_P2
2023/07/03 00:01:31;;;;;;;21.77;20.00;;;;;;;20.93;54.12;99683.91;4966848;28;98854;-73
2023/07/03 00:03:57;;;;;;;22.13;20.05;;;;;;;20.97;53.99;99686.19;4955667;28;98235;-73
2023/07/03 00:06:23;;;;;;;21.77;19.70;;;;;;;21.01;53.63;99689.44;4965319;28;96788;-73
2023/07/03 00:08:48;;;;;;;22.13;19.65;;;;;;;20.95;53.71;99688.13;4971743;28;96815;-73
2023/07/03 00:11:14;;;;;;;21.35;19.20;;;;;;;20.97;54.07;99690.66;4962376;28;98700;-73
2023/07/03 00:13:39;;;;;;;22.63;20.38;;;;;;;20.98;53.92;99697.69;4973882;28;98710;-73
2023/07/03 00:16:05;;;;;;;21.50;19.80;;;;;;;20.87;54.01;99679.94;4960525;28;96713;-73
2023/07/03 00:18:31;;;;;;;21.80;20.13;;;;;;;20.93;53.95;99697.25;4965699;28;96794;-73
2023/07/03 00:20:57;;;;;;;21.30;19.52;;;;;;;20.92;53.91;99698.25;4954031;28;98596;-73
2023/07/03 00:23:23;;;;;;;20.92;19.25;;;;;;;20.86;53.68;99696.94;4954334;28;98377;-73
2023/07/03 00:25:49;;;;;;;21.27;19.38;;;;;;;20.85;53.53;99700.56;4954693;28;96684;-73
2023/07/03 00:28:15;;;;;;;21.55;19.90;;;;;;;20.76;53.46;99678.22;4974513;28;96836;-73
2023/07/03 00:30:41;;;;;;;21.45;19.25;;;;;;;20.84;53.26;99687.38;4977198;28;98593;-73
2023/07/03 00:33:07;;;;;;;22.27;20.30;;;;;;;20.85;53.34;99683.72;4960032;28;98758;-73
2023/07/03 00:35:33;;;;;;;21.35;19.65;;;;;;;20.77;52.99;99679.91;4965582;28;96780;-73
2023/07/03 00:37:59;;;;;;;21.17;19.48;;;;;;;20.73;53.55;99678.47;4976446;28;96810;-73
2023/07/03 00:40:24;;;;;;;22.38;20.50;;;;;;;20.75;53.65;99687.19;4964200;28;98718;-73
2023/07/03 00:42:52;;;;;;;21.75;19.73;;;;;;;20.76;53.66;99688.03;4964055;28;98259;-73
2023/07/03 00:45:19;;;;;;;21.10;19.33;;;;;;;20.65;53.68;99688.94;4956303;28;96875;-73
2023/07/03 00:47:45;;;;;;;21.80;20.10;;;;;;;20.65;53.56;99685.44;4957116;28;97335;-73
2023/07/03 00:50:11;;;;;;;22.52;20.48;;;;;;;20.69;53.78;99692.22;4971008;28;98676;-73
2023/07/03 00:52:38;;;;;;;21.67;19.67;;;;;;;20.65;53.88;99686.28;4981506;28;100213;-73
2023/07/03 00:55:05;;;;;;;20.85;19.02;;;;;;;20.69;54.08;99700.22;4958042;28;96691;-73
2023/07/03 00:57:31;;;;;;;21.83;20.02;;;;;;;20.61;54.28;99686.69;4956221;28;96756;-73
2023/07/03 00:59:57;;;;;;;21.13;19.30;;;;;;;20.66;54.13;99693.31;4971188;28;97930;-73
2023/07/03 01:02:47;;;;;;;21.38;19.38;;;;;;;20.68;54.18;99693.19;4953390;28;98270;-73
2023/07/03 01:05:26;;;;;;;20.48;18.98;;;;;;;20.64;54.23;99705.09;4970684;28;97607;-73
2023/07/03 01:07:52;;;;;;;22.20;20.20;;;;;;;20.47;54.33;99666.50;4965243;28;96795;-73
2023/07/03 01:10:23;;;;;;;21.58;19.88;;;;;;;20.65;54.05;99696.94;4975246;28;99242;-73
2023/07/03 01:13:02;;;;;;;21.80;20.10;;;;;;;20.61;54.11;99695.53;4958562;28;98781;-73
2023/07/03 01:15:32;;;;;;;21.27;19.47;;;;;;;20.60;54.31;99695.69;4959479;28;96685;-73
2023/07/03 01:18:00;;;;;;;22.25;20.33;;;;;;;20.43;54.46;99665.94;4961899;28;96995;-72
2023/07/03 01:20:30;;;;;;;22.10;20.40;;;;;;;20.63;54.37;99704.25;4959059;28;100403;-73
2023/07/03 01:23:04;;;;;;;21.58;19.90;;;;;;;20.62;54.81;99699.03;4955617;28;100114;-73
2023/07/03 01:25:30;;;;;;;21.90;20.20;;;;;;;20.62;54.38;99701.72;4965824;28;96685;-73
2023/07/03 01:27:58;;;;;;;21.50;19.85;;;;;;;20.50;54.70;99685.75;4959431;28;96939;-73
2023/07/03 01:30:25;;;;;;;21.35;19.85;;;;;;;20.60;54.69;99701.03;4956740;28;98617;-73
2023/07/03 01:32:52;;;;;;;26.10;20.25;;;;;;;20.45;54.66;99680.00;4968852;28;98854;-73
2023/07/03 01:35:19;;;;;;;23.80;21.63;;;;;;;20.52;54.86;99694.50;4962491;28;96737;-73
2023/07/03 01:37:47;;;;;;;21.23;19.40;;;;;;;20.54;54.97;99697.88;4958497;28;97054;-73
2023/07/03 01:40:15;;;;;;;21.90;20.02;;;;;;;20.56;54.92;99706.59;4973162;28;99202;-73
2023/07/03 01:42:41;;;;;;;21.50;19.80;;;;;;;20.55;54.92;99704.91;4970679;28;97640;-73
2023/07/03 01:45:07;;;;;;;22.98;21.05;;;;;;;20.53;55.08;99703.34;4976700;28;96772;-73
2023/07/03 01:47:33;;;;;;;22.05;20.17;;;;;;;20.56;55.20;99708.41;4976077;28;96945;-73
2023/07/03 01:49:59;;;;;;;20.95;19.13;;;;;;;20.48;54.96;99692.22;4973909;28;99142;-73
2023/07/03 01:52:43;;;;;;;21.67;19.98;;;;;;;20.55;54.86;99704.91;4964378;28;98395;-73
2023/07/03 01:55:46;;;;;;;22.65;21.05;;;;;;;20.56;54.61;99703.06;4974866;28;96725;-73
2023/07/03 01:58:28;;;;;;;22.13;20.17;;;;;;;20.56;54.53;99697.75;4963120;28;96759;-73
2023/07/03 02:00:58;;;;;;;23.55;21.48;;;;;;;20.51;54.40;99692.78;4958879;28;100633;-73
2023/07/03 02:03:32;;;;;;;21.93;20.10;;;;;;;20.57;54.51;99702.13;4955686;28;97638;-73
2023/07/03 02:06:01;;;;;;;21.50;19.77;;;;;;;20.54;54.71;99703.22;4975279;28;96590;-73
2023/07/03 02:08:28;;;;;;;21.92;20.27;;;;;;;20.51;54.74;99695.47;4974970;28;96902;-73
2023/07/03 02:10:55;;;;;;;23.17;21.02;;;;;;;20.52;55.02;99699.84;4960774;28;99061;-73
2023/07/03 02:13:21;;;;;;;22.58;20.77;;;;;;;20.52;55.38;99707.84;4973773;28;98789;-73
2023/07/03 02:15:46;;;;;;;22.25;20.20;;;;;;;20.45;55.29;99698.66;4970972;28;96635;-73
2023/07/03 02:18:13;;;;;;;22.45;20.63;;;;;;;20.45;55.22;99708.44;4966025;28;96832;-73
2023/07/03 02:20:39;;;;;;;20.98;19.27;;;;;;;20.46;55.47;99702.16;4958648;28;98588;-73
2023/07/03 02:23:04;;;;;;;21.17;19.58;;;;;;;20.45;55.42;99697.78;4955893;28;98260;-73
2023/07/03 02:25:31;;;;;;;22.55;20.75;;;;;;;20.45;55.58;99708.44;4969289;28;96837;-73
2023/07/03 02:27:57;;;;;;;22.35;20.75;;;;;;;20.42;55.54;99700.69;4974457;28;97009;-73
2023/07/03 02:30:23;;;;;;;20.83;19.13;;;;;;;20.35;55.58;99700.38;4975320;28;99062;-73
2023/07/03 02:32:48;;;;;;;21.58;19.80;;;;;;;20.40;55.93;99711.50;4971653;28;98765;-73
2023/07/03 02:35:14;;;;;;;20.83;19.08;;;;;;;20.41;55.84;99717.69;4964507;28;96771;-73
2023/07/03 02:37:39;;;;;;;22.10;20.15;;;;;;;20.30;55.92;99711.47;4975486;28;96930;-73
2023/07/03 02:40:08;;;;;;;22.90;20.75;;;;;;;20.39;56.05;99716.97;4966239;28;101034;-73
2023/07/03 02:42:35;;;;;;;21.77;19.87;;;;;;;20.30;55.71;99699.91;4970205;28;99296;-73
2023/07/03 02:45:03;;;;;;;22.73;20.80;;;;;;;20.36;56.10;99712.72;4974335;28;96809;-73
2023/07/03 02:47:33;;;;;;;21.70;19.92;;;;;;;20.31;56.25;99717.63;4974377;28;96864;-73
2023/07/03 02:49:59;;;;;;;22.60;20.58;;;;;;;20.35;56.34;99719.03;4970499;28;100236;-73
2023/07/03 02:52:25;;;;;;;23.73;21.42;;;;;;;20.13;56.41;99688.88;4969730;28;100075;-73
2023/07/03 02:54:51;;;;;;;22.00;20.17;;;;;;;20.25;56.38;99707.47;4956780;28;96964;-73
2023/07/03 02:57:16;;;;;;;21.73;19.95;;;;;;;20.25;56.27;99696.81;4967214;28;96831;-73
2023/07/03 02:59:42;;;;;;;23.58;21.63;;;;;;;20.27;56.01;99702.84;4968985;28;97560;-73
2023/07/03 03:02:08;;;;;;;23.38;21.38;;;;;;;20.35;56.00;99709.22;4961659;28;98444;-73
2023/07/03 03:04:33;;;;;;;22.05;20.15;;;;;;;20.29;56.33;99707.06;4975666;28;96702;-73
2023/07/03 03:06:59;;;;;;;22.77;20.83;;;;;;;20.32;56.31;99704.16;4960104;28;97032;-73
2023/07/03 03:09:24;;;;;;;23.27;21.42;;;;;;;20.11;56.36;99698.81;4964766;28;98794;-73
2023/07/03 03:11:51;;;;;;;23.58;21.40;;;;;;;20.03;56.77;99703.94;4969241;28;100699;-73
2023/07/03 03:14:17;;;;;;;24.15;21.83;;;;;;;19.82;57.04;99685.25;4975120;28;96746;-73
2023/07/03 03:16:42;;;;;;;24.40;22.05;;;;;;;20.01;57.00;99694.38;4959571;28;96931;-73
2023/07/03 03:19:08;;;;;;;22.30;20.45;;;;;;;20.11;57.06;99703.31;4974823;28;98583;-73
2023/07/03 03:21:33;;;;;;;22.65;20.85;;;;;;;20.10;57.11;99699.81;4957394;28;100861;-73
2023/07/03 03:23:59;;;;;;;23.08;21.33;;;;;;;20.09;57.66;99699.91;4969485;28;96956;-73
2023/07/03 03:26:25;;;;;;;23.48;21.48;;;;;;;20.01;57.28;99694.38;4970258;28;96908;-73
2023/07/03 03:28:51;;;;;;;21.15;19.55;;;;;;;20.15;57.34;99709.22;4969155;28;99543;-73
2023/07/03 03:31:17;;;;;;;22.67;20.67;;;;;;;20.17;57.39;99708.13;4972828;28;100090;-73
2023/07/03 03:33:50;;;;;;;23.00;20.92;;;;;;;20.16;57.78;99702.91;4958414;28;96741;-73
2023/07/03 03:36:16;;;;;;;23.23;21.30;;;;;;;20.10;57.75;99705.13;4960960;28;96907;-73
2023/07/03 03:38:42;;;;;;;22.90;20.80;;;;;;;20.10;57.67;99707.78;4974161;28;98517;-73
2023/07/03 03:41:08;;;;;;;24.08;21.30;;;;;;;20.17;57.79;99708.13;4960268;28;97721;-73
2023/07/03 03:43:37;;;;;;;22.75;20.80;;;;;;;20.15;58.01;99701.22;4962113;28;96732;-73
2023/07/03 03:46:04;;;;;;;21.13;19.42;;;;;;;20.18;57.98;99700.97;4988361;28;97568;-73
2023/07/03 03:48:31;;;;;;;21.95;19.95;;;;;;;20.21;57.97;99698.88;4972944;28;98835;-73
2023/07/03 03:50:58;;;;;;;20.50;18.60;;;;;;;20.28;58.00;99701.91;4960852;28;100517;-73
2023/07/03 03:53:24;;;;;;;22.95;20.98;;;;;;;20.25;57.96;99696.81;4972163;28;97416;-73
2023/07/03 03:55:51;;;;;;;22.42;20.23;;;;;;;20.32;57.79;99701.50;4974663;28;97162;-73
2023/07/03 03:58:18;;;;;;;21.88;19.80;;;;;;;20.32;57.25;99697.97;4958725;28;98666;-73
2023/07/03 04:00:44;;;;;;;23.10;20.80;;;;;;;20.32;57.11;99700.66;4973658;28;98345;-73
2023/07/03 04:03:10;;;;;;;22.95;20.85;;;;;;;20.34;56.96;99701.38;4961739;28;96630;-73
2023/07/03 04:05:36;;;;;;;22.15;20.35;;;;;;;20.18;57.14;99696.47;4976089;28;97656;-73
2023/07/03 04:08:02;;;;;;;22.80;20.73;;;;;;;20.19;57.11;99692.84;4969943;28;98684;-73
2023/07/03 04:10:27;;;;;;;22.42;20.73;;;;;;;20.13;57.33;99685.38;4966554;28;98367;-73
2023/07/03 04:12:53;;;;;;;23.98;21.52;;;;;;;20.11;57.22;99682.81;4977638;28;96768;-73
2023/07/03 04:15:18;;;;;;;23.23;21.00;;;;;;;20.17;57.36;99697.47;4977642;28;96838;-73
2023/07/03 04:17:44;;;;;;;23.15;21.30;;;;;;;20.12;57.36;99695.16;4974897;28;98713;-73
2023/07/03 04:20:13;;;;;;;23.00;20.90;;;;;;;20.11;57.74;99701.47;4960682;28;98484;-73
2023/07/03 04:22:42;;;;;;;23.73;21.40;;;;;;;20.08;57.78;99693.75;4965361;28;97941;-73
2023/07/03 04:25:08;;;;;;;22.85;20.77;;;;;;;20.19;57.46;99697.31;4971202;28;97018;-73
2023/07/03 04:27:34;;;;;;;22.98;20.83;;;;;;;20.19;57.67;99703.50;4980428;28;98676;-74
2023/07/03 04:30:01;;;;;;;22.52;20.67;;;;;;;19.95;57.91;99668.25;4968868;28;98320;-74
2023/07/03 04:32:27;;;;;;;23.88;21.75;;;;;;;20.12;57.74;99695.16;4977126;28;96581;-74
2023/07/03 04:34:53;;;;;;;22.83;20.67;;;;;;;20.09;58.00;99697.25;4977457;28;96793;-74
2023/07/03 04:37:18;;;;;;;23.17;21.17;;;;;;;20.30;57.70;99697.25;4976733;28;98832;-74
2023/07/03 04:39:44;;;;;;;25.20;20.85;;;;;;;20.50;57.16;99692.91;4976898;28;98340;-74
2023/07/03 04:42:13;;;;;;;25.00;22.60;;;;;;;20.51;57.24;99690.13;4976867;28;96819;-74
2023/07/03 04:44:41;;;;;;;23.30;20.83;;;;;;;20.76;56.67;99696.88;4977478;28;96867;-74
2023/07/03 04:47:08;;;;;;;22.27;20.27;;;;;;;20.86;56.33;99670.28;4975034;28;98495;-74
2023/07/03 04:49:34;;;;;;;23.58;21.45;;;;;;;21.13;55.69;99688.34;4976087;28;98685;-74
2023/07/03 04:51:59;;;;;;;23.40;21.35;;;;;;;21.11;55.06;99654.75;4964482;28;97475;-74
2023/07/03 04:54:27;;;;;;;24.23;21.92;;;;;;;21.38;54.99;99689.72;4977472;28;97236;-71
2023/07/03 04:56:54;;;;;;;22.73;20.60;;;;;;;21.49;54.72;99702.09;4970093;28;98716;-74
2023/07/03 04:59:19;;;;;;;24.60;21.92;;;;;;;21.40;54.51;99703.75;4957565;28;98783;-71
2023/07/03 05:01:45;;;;;;;23.98;22.08;;;;;;;21.51;54.53;99699.31;4974073;28;96679;-71
2023/07/03 05:04:11;;;;;;;25.75;23.13;;;;;;;21.69;53.93;99698.47;4968014;28;96908;-71
2023/07/03 05:06:36;;;;;;;23.05;20.88;;;;;;;21.91;53.80;99697.38;4957835;28;99091;-74
2023/07/03 05:09:03;;;;;;;23.30;21.48;;;;;;;22.04;53.28;99691.75;4976692;28;98659;-74
2023/07/03 05:11:29;;;;;;;23.20;21.45;;;;;;;22.15;52.79;99688.09;4976935;28;96781;-74
2023/07/03 05:13:55;;;;;;;23.70;21.35;;;;;;;22.37;52.33;99701.22;4957099;28;97150;-74
2023/07/03 05:16:21;;;;;;;23.92;21.65;;;;;;;22.45;51.34;99691.59;4967525;28;98975;-74
2023/07/03 05:18:46;;;;;;;25.50;22.35;;;;;;;22.74;51.15;99697.72;4972899;28;98358;-72
2023/07/03 05:21:12;;;;;;;24.52;22.33;;;;;;;22.81;50.93;99671.25;4956996;28;96759;-72
2023/07/03 05:23:37;;;;;;;23.35;21.10;;;;;;;22.94;49.99;99676.25;4970693;28;96820;-72
2023/07/03 05:26:03;;;;;;;23.95;21.75;;;;;;;23.13;49.59;99694.13;4956381;28;98889;-72
2023/07/03 05:28:30;;;;;;;23.90;21.73;;;;;;;23.31;49.49;99699.53;4969722;28;98734;-72
2023/07/03 05:30:57;;;;;;;25.42;22.70;;;;;;;23.27;49.10;99677.53;4976399;28;96773;-72
2023/07/03 05:33:23;;;;;;;23.73;21.52;;;;;;;23.54;48.75;99687.41;4976718;28;97541;-72
2023/07/03 05:35:49;;;;;;;23.92;21.77;;;;;;;23.68;48.48;99670.81;4972185;28;98756;-72
2023/07/03 05:38:14;;;;;;;25.58;23.20;;;;;;;24.05;47.81;99696.63;4957292;28;98879;-72
2023/07/03 05:40:40;;;;;;;25.30;22.48;;;;;;;24.17;47.35;99692.75;4970268;28;96591;-72
2023/07/03 05:43:05;;;;;;;23.83;21.75;;;;;;;24.36;47.24;99686.34;4956699;28;96895;-72
2023/07/03 05:45:31;;;;;;;23.77;21.58;;;;;;;24.54;45.74;99672.91;4969544;28;98583;-72
2023/07/03 05:47:56;;;;;;;30.63;23.17;;;;;;;24.76;45.07;99689.50;4971521;28;98481;-72
2023/07/03 05:50:22;;;;;;;25.85;23.35;;;;;;;25.01;44.20;99687.78;4965557;28;97554;-73
2023/07/03 05:52:48;;;;;;;25.42;23.15;;;;;;;25.22;43.63;99687.38;4956464;28;96848;-72
2023/07/03 05:55:14;;;;;;;28.20;25.15;;;;;;;24.80;44.28;99688.16;4958307;28;98622;-75
2023/07/03 05:57:40;;;;;;;25.20;22.95;;;;;;;24.64;44.49;99683.56;4976583;28;98466;-73
2023/07/03 06:00:12;;;;;;;26.75;24.20;;;;;;;24.22;45.47;99686.06;4964386;28;96844;-74
2023/07/03 06:02:39;;;;;;;25.23;23.10;;;;;;;23.70;47.26;99676.88;4967797;28;96862;-73
2023/07/03 06:05:05;;;;;;;24.63;22.17;;;;;;;23.73;48.27;99675.72;4971732;28;98683;-72
2023/07/03 06:07:31;;;;;;;25.75;23.02;;;;;;;24.06;48.12;99674.22;4972901;28;97470;-72
2023/07/03 06:09:57;;;;;;;25.75;23.10;;;;;;;23.85;48.41;99673.66;4970151;28;96734;-72
2023/07/03 06:12:29;;;;;;;25.33;22.73;;;;;;;24.06;47.45;99663.50;4975483;28;96727;-72
2023/07/03 06:14:57;;;;;;;25.38;22.90;;;;;;;24.29;46.44;99674.56;4973795;28;99011;-72
2023/07/03 06:17:24;;;;;;;25.27;23.27;;;;;;;24.81;46.14;99681.78;4974802;28;98398;-72
2023/07/03 06:19:50;;;;;;;25.60;23.50;;;;;;;24.35;46.28;99687.34;4970947;28;96785;-72
2023/07/03 06:22:16;;;;;;;25.23;22.55;;;;;;;24.47;46.27;99687.13;4970569;28;96650;-72
2023/07/03 06:24:41;;;;;;;24.77;22.55;;;;;;;24.58;46.27;99689.53;4974875;28;98692;-72
2023/07/03 06:27:07;;;;;;;26.38;23.98;;;;;;;24.83;44.63;99694.06;4964910;28;98405;-72
2023/07/03 06:29:33;;;;;;;25.88;23.23;;;;;;;24.96;44.02;99684.72;4960728;28;96726;-72
2023/07/03 06:31:59;;;;;;;25.75;23.40;;;;;;;25.62;43.09;99688.53;4964658;28;96930;-72
2023/07/03 06:34:24;;;;;;;26.90;24.25;;;;;;;26.50;41.88;99680.75;4975115;28;98717;-72
2023/07/03 06:36:50;;;;;;;25.90;23.52;;;;;;;27.36;40.05;99683.69;4975355;28;98552;-73
2023/07/03 06:39:16;;;;;;;28.65;23.83;;;;;;;27.58;39.72;99673.97;4975570;28;96803;-72
2023/07/03 06:41:41;;;;;;;25.85;23.45;;;;;;;28.10;38.74;99679.53;4974663;28;98985;-73
2023/07/03 06:44:12;;;;;;;25.38;23.20;;;;;;;28.48;38.19;99676.03;4974837;28;98817;-71
2023/07/03 06:46:37;;;;;;;;;;;;;;;28.75;36.36;99675.41;4975123;28;97558;-71
2023/07/03 06:49:03;;;;;;;26.55;24.27;;;;;;;28.87;36.17;99670.38;4967905;28;97209;-71
2023/07/03 06:51:28;;;;;;;25.42;23.33;;;;;;;29.61;35.04;99669.44;4964001;28;96888;-73
2023/07/03 06:53:54;;;;;;;24.58;22.45;;;;;;;30.26;34.25;99665.78;4967549;28;98931;-74
2023/07/03 06:56:20;;;;;;;26.92;24.35;;;;;;;30.72;33.16;99659.88;4968852;28;98253;-74
2023/07/03 06:58:48;;;;;;;26.65;24.33;;;;;;;31.23;32.59;99651.38;4975518;28;97168;-74
2023/07/03 07:01:16;;;;;;;26.63;23.95;;;;;;;31.21;31.13;99649.91;4973664;28;96885;-74
2023/07/03 07:03:41;;;;;;;25.75;23.55;;;;;;;32.14;30.29;99656.44;4970211;28;98489;-74
2023/07/03 07:06:19;;;;;;;26.23;24.02;;;;;;;32.56;29.79;99662.50;4955022;28;98243;-75
2023/07/03 07:08:45;;;;;;;28.73;26.08;;;;;;;32.52;29.40;99638.69;4955760;28;96738;-74
2023/07/03 07:11:13;;;;;;;27.35;25.00;;;;;;;32.62;28.80;99648.06;4955666;28;96789;-75
2023/07/03 07:13:40;;;;;;;28.13;25.35;;;;;;;32.65;28.84;99658.50;4960223;28;98711;-75
2023/07/03 07:16:14;;;;;;;27.23;24.88;;;;;;;33.31;27.71;99652.06;4963284;28;98285;-76
2023/07/03 07:18:40;;;;;;;26.30;23.95;;;;;;;33.83;27.53;99643.81;4969241;28;96673;-75
2023/07/03 07:21:06;;;;;;;27.13;24.55;;;;;;;34.59;26.02;99644.69;4955418;28;96895;-75
2023/07/03 07:23:31;;;;;;;26.27;23.98;;;;;;;34.46;25.73;99638.28;4954958;28;98703;-74
2023/07/03 07:25:57;;;;;;;25.67;23.42;;;;;;;34.15;25.84;99630.19;4954814;28;98304;-75
2023/07/03 07:28:22;;;;;;;24.40;22.40;;;;;;;34.65;26.00;99635.63;4955146;28;96718;-75
2023/07/03 07:30:49;;;;;;;24.45;22.52;;;;;;;35.05;25.49;99616.94;4961886;28;96957;-75
2023/07/03 07:33:15;;;;;;;25.60;23.60;;;;;;;34.63;25.79;99624.94;4974236;28;99038;-74
2023/07/03 07:35:41;;;;;;;24.25;22.40;;;;;;;34.89;24.96;99615.63;4956745;28;98894;-75
2023/07/03 07:38:07;;;;;;;25.08;22.67;;;;;;;35.34;24.90;99628.94;4965131;28;96722;-74
2023/07/03 07:40:32;;;;;;;24.75;22.70;;;;;;;35.89;24.25;99627.09;4960517;28;96841;-75
2023/07/03 07:42:58;;;;;;;25.48;23.33;;;;;;;36.42;24.17;99629.81;4965201;28;98832;-75
2023/07/03 07:45:23;;;;;;;24.50;22.05;;;;;;;36.55;24.43;99627.94;4954728;28;98271;-75
2023/07/03 07:47:49;;;;;;;25.08;22.92;;;;;;;36.44;24.43;99635.03;4968599;28;96664;-75
2023/07/03 07:50:14;;;;;;;25.58;22.98;;;;;;;36.81;23.39;99624.69;4955038;28;96831;-75
2023/07/03 07:52:40;;;;;;;25.35;22.92;;;;;;;37.30;22.46;99630.63;4966615;28;98666;-78
2023/07/03 07:55:06;;;;;;;24.70;22.80;;;;;;;37.66;22.36;99622.28;4961074;28;98858;-76
2023/07/03 07:57:31;;;;;;;24.98;22.98;;;;;;;38.14;21.27;99608.06;4974711;28;98627;-78
2023/07/03 07:59:57;;;;;;;25.23;23.10;;;;;;;38.56;21.21;99607.59;4960967;28;96825;-74
2023/07/03 08:02:22;;;;;;;24.95;22.80;;;;;;;36.42;22.97;99621.63;4973719;28;98517;-76
2023/07/03 08:04:48;;;;;;;23.90;21.63;;;;;;;34.71;24.54;99610.19;4974220;28;98435;-76
2023/07/03 08:07:14;;;;;;;24.10;21.80;;;;;;;33.83;25.77;99616.59;4976427;28;96948;-77
2023/07/03 08:09:39;;;;;;;24.52;22.15;;;;;;;33.18;26.80;99608.59;4966861;28;96915;-77
2023/07/03 08:12:05;;;;;;;25.30;23.00;;;;;;;34.90;24.84;99600.09;4969269;28;98789;-77
2023/07/03 08:14:31;;;;;;;25.65;23.45;;;;;;;36.26;23.63;99606.75;4968736;28;98626;-76
2023/07/03 08:16:57;;;;;;;24.75;22.52;;;;;;;36.46;23.03;99602.84;4961559;28;97302;-78
2023/07/03 08:19:22;;;;;;;23.83;21.65;;;;;;;35.44;24.16;99597.56;4974129;28;97202;-77
2023/07/03 08:21:48;;;;;;;25.65;23.45;;;;;;;34.48;24.55;99606.22;4973538;28;98792;-76
2023/07/03 08:24:13;;;;;;;25.55;23.13;;;;;;;33.32;25.63;99593.88;4982500;28;98607;-77
2023/07/03 08:26:41;;;;;;;25.38;22.83;;;;;;;33.75;26.30;99590.50;4974054;28;96753;-77
2023/07/03 08:29:07;;;;;;;26.27;23.90;;;;;;;33.96;25.67;99602.06;4978939;28;96866;-77
2023/07/03 08:31:33;;;;;;;27.52;24.98;;;;;;;32.90;25.97;99579.88;4973153;28;99181;-77
2023/07/03 08:33:59;;;;;;;27.05;24.85;;;;;;;32.76;26.24;99613.56;4970884;28;98530;-76
2023/07/03 08:36:24;;;;;;;24.50;22.60;;;;;;;33.48;26.28;99613.47;4974450;28;97367;-78
2023/07/03 08:38:50;;;;;;;25.20;23.05;;;;;;;34.02;25.80;99582.94;4975028;28;97385;-78
2023/07/03 08:41:15;;;;;;;24.83;22.73;;;;;;;33.54;25.87;99599.88;4981155;28;98875;-76
2023/07/03 08:43:44;;;;;;;26.13;23.90;;;;;;;33.16;24.97;99601.72;4980519;28;98628;-75
2023/07/03 08:46:13;;;;;;;27.17;24.95;;;;;;;32.89;25.98;99605.34;4974661;28;96786;-75
2023/07/03 08:48:40;;;;;;;26.93;24.37;;;;;;;32.89;26.87;99596.38;4985819;28;96712;-75
2023/07/03 08:51:10;;;;;;;24.80;22.58;;;;;;;32.80;27.66;99606.63;4981448;28;98722;-76
2023/07/03 08:53:40;;;;;;;27.17;24.73;;;;;;;32.51;26.27;99607.97;4988895;28;99390;-75
2023/07/03 08:56:32;;;;;;;26.75;24.52;;;;;;;32.22;26.42;99611.97;4984370;28;96764;-75
2023/07/03 08:58:58;;;;;;;25.55;23.60;;;;;;;32.22;27.74;99601.09;4975795;28;96885;-75
2023/07/03 09:01:46;;;;;;;26.85;24.65;;;;;;;32.30;26.10;99610.91;4976720;28;98649;-75
2023/07/03 09:04:52;;;;;;;27.38;25.02;;;;;;;31.93;26.26;99613.22;4983183;28;98506;-75
2023/07/03 09:07:33;;;;;;;25.83;23.73;;;;;;;31.97;26.49;99625.31;4972863;28;97808;-75
2023/07/03 09:10:06;;;;;;;26.42;24.23;;;;;;;31.63;27.11;99618.16;4980546;28;96812;-75
2023/07/03 09:12:48;;;;;;;26.65;24.20;;;;;;;31.37;26.93;99602.69;4977481;28;99817;-75
2023/07/03 09:15:19;;;;;;;27.25;24.63;;;;;;;30.77;27.17;99613.22;4975048;28;98295;-76
2023/07/03 09:17:46;;;;;;;28.33;25.48;;;;;;;30.52;27.70;99611.00;4976227;28;96873;-75
2023/07/03 09:20:13;;;;;;;26.38;23.80;;;;;;;30.84;28.20;99614.13;4984129;28;98877;-75
2023/07/03 09:22:50;;;;;;;27.27;24.88;;;;;;;30.94;27.80;99614.56;4971596;28;99137;-75
2023/07/03 09:25:50;;;;;;;25.85;23.55;;;;;;;30.76;28.72;99617.78;4971314;28;98733;-76
2023/07/03 09:28:15;;;;;;;25.80;23.70;;;;;;;30.66;29.14;99622.72;4987373;28;97045;-76
2023/07/03 09:30:41;;;;;;;26.52;24.20;;;;;;;30.53;28.75;99633.50;4973068;28;96811;-75
2023/07/03 09:33:06;;;;;;;27.02;24.25;;;;;;;30.43;28.79;99628.44;4966352;28;99392;-75
2023/07/03 09:35:35;;;;;;;25.63;23.33;;;;;;;30.35;28.80;99604.22;4977364;28;98263;-75
2023/07/03 09:38:01;;;;;;;26.38;23.55;;;;;;;30.59;28.80;99619.97;4980169;28;97596;-75
2023/07/03 09:40:33;;;;;;;24.90;22.70;;;;;;;30.53;29.11;99617.25;4970683;28;98126;-75
2023/07/03 09:43:00;;;;;;;24.83;22.85;;;;;;;30.48;28.52;99631.38;4972523;28;98980;-75
2023/07/03 09:45:31;;;;;;;26.33;24.02;;;;;;;30.12;28.23;99615.25;4962291;28;98636;-75
2023/07/03 09:47:58;;;;;;;25.48;23.42;;;;;;;30.01;29.19;99614.75;4976507;28;97366;-75
2023/07/03 09:50:43;;;;;;;25.25;22.90;;;;;;;29.86;29.24;99622.09;4990120;28;97575;-75
2023/07/03 09:53:16;;;;;;;27.25;24.20;;;;;;;29.57;29.25;99623.03;4975393;28;98976;-75
2023/07/03 09:55:42;;;;;;;26.40;24.10;;;;;;;29.37;29.55;99616.59;4972995;28;98376;-75
2023/07/03 09:58:16;;;;;;;26.13;23.70;;;;;;;29.42;30.52;99633.91;4982506;28;96731;-75
2023/07/03 10:00:47;;;;;;;25.85;23.55;;;;;;;29.52;30.12;99614.66;4994257;28;97991;-75
2023/07/03 10:03:13;;;;;;;27.95;25.02;;;;;;;29.53;29.13;99629.88;4975084;28;98985;-76
2023/07/03 10:05:42;;;;;;;25.92;23.70;;;;;;;29.38;29.39;99634.47;4980888;28;99189;-76
2023/07/03 10:08:09;;;;;;;26.48;23.90;;;;;;;29.42;29.54;99627.66;4975646;28;96755;-75
2023/07/03 10:10:35;;;;;;;27.38;24.88;;;;;;;29.38;29.35;99626.34;4986602;28;96899;-75
2023/07/03 10:13:00;;;;;;;28.85;26.35;;;;;;;29.38;30.67;99635.31;4970405;28;98654;-79
2023/07/03 10:15:28;;;;;;;28.08;25.20;;;;;;;29.49;31.07;99634.81;4955873;28;98187;-82
2023/07/03 10:18:18;;;;;;;27.42;24.88;;;;;;;29.23;29.19;99640.75;4955448;28;96809;-78
2023/07/03 10:20:46;;;;;;;27.55;24.85;;;;;;;29.10;29.68;99630.63;4954904;28;96829;-79
2023/07/03 10:23:22;;;;;;;27.98;25.20;;;;;;;29.12;30.09;99638.56;4961390;28;99025;-79
2023/07/03 10:26:28;;;;;;;25.65;23.38;;;;;;;29.23;30.43;99648.00;4960234;28;98853;-80
2023/07/03 10:29:04;;;;;;;27.55;24.90;;;;;;;29.20;30.66;99651.94;4971203;28;96716;-80
2023/07/03 10:31:34;;;;;;;27.98;25.40;;;;;;;29.11;30.59;99637.69;4955829;28;96883;-80
2023/07/03 10:34:04;;;;;;;28.38;25.67;;;;;;;29.20;31.35;99651.09;4966470;28;98589;-74
2023/07/03 10:36:29;;;;;;;;;;;;;;;28.96;31.00;99644.94;4954540;28;98462;-76
2023/07/03 10:39:09;;;;;;;31.38;26.73;;;;;;;28.96;30.52;99634.16;4977308;28;96808;-75
2023/07/03 10:41:40;;;;;;;28.38;25.52;;;;;;;28.90;31.17;99645.69;4959785;28;97160;-75
2023/07/03 10:44:10;;;;;;;27.98;25.17;;;;;;;28.95;31.31;99643.28;4955580;28;98943;-75
2023/07/03 10:47:02;;;;;;;27.00;24.70;;;;;;;29.09;31.26;99641.63;4958030;28;99613;-75
2023/07/03 10:49:33;;;;;;;26.33;23.88;;;;;;;28.94;30.91;99628.09;4974089;28;98275;-75
2023/07/03 10:52:10;;;;;;;26.88;24.58;;;;;;;28.99;30.70;99633.78;4954248;28;96996;-74
2023/07/03 10:54:42;;;;;;;27.17;24.55;;;;;;;28.82;29.36;99646.63;4971512;28;99262;-74
2023/07/03 10:57:09;;;;;;;27.65;25.13;;;;;;;28.80;29.54;99628.97;4962698;28;98846;-71
2023/07/03 10:59:40;;;;;;;27.13;24.58;;;;;;;28.78;29.86;99639.94;4954386;28;96807;-74
2023/07/03 11:02:16;;;;;;;26.88;24.20;;;;;;;28.82;30.07;99652.03;4964306;28;96689;-74
2023/07/03 11:04:59;;;;;;;27.38;24.70;;;;;;;28.60;29.58;99634.06;4957284;28;98966;-74
2023/07/03 11:07:28;;;;;;;28.42;25.80;;;;;;;28.63;29.67;99639.09;4955120;28;98286;-74
2023/07/03 11:10:05;;;;;;;28.83;26.17;;;;;;;28.63;30.37;99633.69;4975351;28;96695;-72
2023/07/03 11:12:48;;;;;;;27.98;25.08;;;;;;;28.60;30.66;99634.91;4954869;28;96796;-72
2023/07/03 11:15:22;;;;;;;27.50;24.98;;;;;;;28.66;30.57;99636.88;4967422;28;98865;-73
2023/07/03 11:18:01;;;;;;;28.48;25.88;;;;;;;28.57;30.77;99627.19;4953976;28;99020;-72
2023/07/03 11:20:45;;;;;;;25.42;23.05;;;;;;;28.62;30.33;99640.09;4963494;28;97274;-73
2023/07/03 11:23:27;;;;;;;27.15;24.77;;;;;;;28.70;30.63;99650.00;4973889;28;96856;-73